createdAt,value
2019-05-25T00:01:26.295Z,83.80
2019-05-25T00:03:55.573Z,84.30
2019-05-25T00:06:24.891Z,84.90
2019-05-25T00:08:54.224Z,85.60
2019-05-25T00:11:23.706Z,86.40
2019-05-25T00:13:53.290Z,86.90
2019-05-25T00:16:22.945Z,87.80
2019-05-25T00:18:52.391Z,88.20
2019-05-25T00:21:21.699Z,86.90
2019-05-25T00:23:50.992Z,87.10
2019-05-25T00:26:20.275Z,87.20
2019-05-25T00:28:49.515Z,87.40
2019-05-25T00:31:18.887Z,87.30
2019-05-25T00:33:48.155Z,87.60
2019-05-25T00:36:17.437Z,87.50
2019-05-25T00:38:46.780Z,86.80
2019-05-25T00:41:16.037Z,87.10
2019-05-25T00:43:45.330Z,87.10
2019-05-25T00:46:14.604Z,87.10
2019-05-25T00:48:44.144Z,87.40
2019-05-25T00:51:13.485Z,87.90
2019-05-25T00:53:42.935Z,88.00
2019-05-25T00:56:12.643Z,88.40
2019-05-25T00:58:41.958Z,88.90
2019-05-25T01:01:12.423Z,89.30
2019-05-25T01:03:42.834Z,89.80
2019-05-25T01:06:13.037Z,90.20
2019-05-25T01:08:42.415Z,90.50
2019-05-25T01:11:16.058Z,90.70
2019-05-25T01:13:45.907Z,91.00
2019-05-25T01:16:15.182Z,91.40
2019-05-25T01:18:44.536Z,91.80
2019-05-25T01:21:13.895Z,92.50
2019-05-25T01:23:43.280Z,93.10
2019-05-25T01:26:12.769Z,93.70
2019-05-25T01:28:42.156Z,94.40
2019-05-25T01:31:11.546Z,95.10
2019-05-25T01:33:41.276Z,95.70
2019-05-25T01:36:12.532Z,96.40
2019-05-25T01:38:41.803Z,97.10
2019-05-25T01:41:11.054Z,97.90
2019-05-25T01:43:41.249Z,98.50
2019-05-25T01:46:11.734Z,99.30
2019-05-25T01:48:41.254Z,99.70
2019-05-25T01:51:10.620Z,99.90
2019-05-25T01:53:40.083Z,99.90
2019-05-25T01:56:09.422Z,99.90
2019-05-25T01:58:38.735Z,99.90
2019-05-25T02:01:08.167Z,99.90
2019-05-25T02:03:37.772Z,99.90
2019-05-25T02:06:07.114Z,99.90
2019-05-25T02:08:36.455Z,99.90
2019-05-25T02:11:05.800Z,99.90
2019-05-25T02:13:35.084Z,99.90
2019-05-25T02:16:05.504Z,99.90
2019-05-25T02:18:34.728Z,99.90
2019-05-25T02:21:04.036Z,99.90
2019-05-25T02:23:33.310Z,99.90
2019-05-25T02:26:02.565Z,99.90
2019-05-25T02:28:31.997Z,99.90
2019-05-25T02:31:01.277Z,99.90
2019-05-25T02:33:30.922Z,99.90
2019-05-25T02:36:00.358Z,99.90
2019-05-25T02:38:29.689Z,99.90
2019-05-25T02:40:59.175Z,99.90
2019-05-25T02:43:28.440Z,99.90
2019-05-25T02:45:57.927Z,99.90
2019-05-25T02:48:27.193Z,99.90
2019-05-25T02:50:56.546Z,99.90
2019-05-25T02:53:25.844Z,99.90
2019-05-25T02:55:55.147Z,99.90
2019-05-25T02:58:24.462Z,99.90
2019-05-25T03:00:53.783Z,99.90
2019-05-25T03:03:23.176Z,99.90
2019-05-25T03:05:53.270Z,99.90
2019-05-25T03:08:22.520Z,99.90
2019-05-25T03:10:52.561Z,99.90
2019-05-25T03:13:21.940Z,99.90
2019-05-25T03:15:51.261Z,99.90
2019-05-25T03:18:20.539Z,99.90
2019-05-25T03:20:49.901Z,99.90
2019-05-25T03:23:19.216Z,99.90
2019-05-25T03:25:49.940Z,99.90
2019-05-25T03:28:19.423Z,99.90
2019-05-25T03:30:48.768Z,99.90
2019-05-25T03:33:19.025Z,99.90
2019-05-25T03:35:48.315Z,99.90
2019-05-25T03:38:17.615Z,99.90
2019-05-25T03:40:46.962Z,99.90
2019-05-25T03:43:16.266Z,99.90
2019-05-25T03:45:45.627Z,99.90
2019-05-25T03:48:14.958Z,99.90
2019-05-25T03:50:44.302Z,99.90
2019-05-25T03:53:13.610Z,99.90
2019-05-25T03:55:43.062Z,99.90
2019-05-25T03:58:12.383Z,99.90
2019-05-25T04:00:41.839Z,99.90
2019-05-25T04:03:11.114Z,99.90
2019-05-25T04:05:40.536Z,99.90
2019-05-25T04:08:09.790Z,99.90
2019-05-25T04:10:39.297Z,99.90
2019-05-25T04:13:08.710Z,99.90
2019-05-25T04:15:38.001Z,99.90
2019-05-25T04:18:07.452Z,99.90
2019-05-25T04:20:36.755Z,99.90
2019-05-25T04:23:05.994Z,99.90
2019-05-25T04:25:35.278Z,99.90
2019-05-25T04:28:10.390Z,99.90
2019-05-25T04:30:39.894Z,99.90
2019-05-25T04:33:09.214Z,99.90
2019-05-25T04:35:39.008Z,99.90
2019-05-25T04:38:08.293Z,99.90
2019-05-25T04:40:38.927Z,99.90
2019-05-25T04:43:08.424Z,99.90
2019-05-25T04:45:37.669Z,99.90
2019-05-25T04:48:06.961Z,99.90
2019-05-25T04:50:36.209Z,99.90
2019-05-25T04:53:05.559Z,99.90
2019-05-25T04:55:35.528Z,99.90
2019-05-25T04:58:04.922Z,99.90
2019-05-25T05:00:34.219Z,99.90
2019-05-25T05:03:04.713Z,99.90
2019-05-25T05:05:34.146Z,99.90
2019-05-25T05:08:03.515Z,99.90
2019-05-25T05:10:32.815Z,99.90
2019-05-25T05:13:02.223Z,99.90
2019-05-25T05:15:31.486Z,99.90
2019-05-25T05:18:00.766Z,99.90
2019-05-25T05:20:31.021Z,99.90
2019-05-25T05:23:00.298Z,99.90
2019-05-25T05:25:29.819Z,99.90
2019-05-25T05:27:59.116Z,99.00
2019-05-25T05:30:34.992Z,97.30
2019-05-25T05:33:04.734Z,95.40
2019-05-25T05:35:34.212Z,92.60
2019-05-25T05:38:06.382Z,91.50
2019-05-25T05:40:38.272Z,90.70
2019-05-25T05:43:11.523Z,90.50
2019-05-25T05:45:42.423Z,90.50
2019-05-25T05:48:13.709Z,90.10
2019-05-25T05:50:44.681Z,87.30
2019-05-25T05:53:25.512Z,86.80
2019-05-25T05:55:54.791Z,84.40
2019-05-25T05:58:24.122Z,83.20
2019-05-25T06:00:53.453Z,80.80
2019-05-25T06:03:22.741Z,79.90
2019-05-25T06:05:52.034Z,80.30
2019-05-25T06:08:21.370Z,79.70
2019-05-25T06:10:50.912Z,81.50
2019-05-25T06:13:20.295Z,81.90
2019-05-25T06:15:49.682Z,83.20
2019-05-25T06:18:18.955Z,83.60
2019-05-25T06:20:48.254Z,82.90
2019-05-25T06:23:17.555Z,82.00
2019-05-25T06:25:46.894Z,80.60
2019-05-25T06:28:18.316Z,80.00
2019-05-25T06:30:47.548Z,81.80
2019-05-25T06:33:16.861Z,81.10
2019-05-25T06:35:46.160Z,81.20
2019-05-25T06:38:15.440Z,83.50
2019-05-25T06:40:44.690Z,86.80
2019-05-25T06:43:14.277Z,86.80
2019-05-25T06:45:43.754Z,88.00
2019-05-25T06:48:13.031Z,89.90
2019-05-25T06:50:42.317Z,90.20
2019-05-25T06:53:11.611Z,89.70
2019-05-25T06:55:40.907Z,90.30
2019-05-25T06:58:10.262Z,91.20
2019-05-25T07:00:39.576Z,92.10
2019-05-25T07:03:08.809Z,93.00
2019-05-25T07:05:38.141Z,94.00
2019-05-25T07:08:07.512Z,95.20
2019-05-25T07:10:36.741Z,96.70
2019-05-25T07:13:07.143Z,97.70
2019-05-25T07:15:36.642Z,98.80
2019-05-25T07:18:08.096Z,98.70
2019-05-25T07:20:37.202Z,98.80
2019-05-25T07:23:06.772Z,99.40
2019-05-25T07:25:36.029Z,99.80
2019-05-25T07:28:05.520Z,99.90
2019-05-25T07:30:34.866Z,99.90
2019-05-25T07:33:04.356Z,99.90
2019-05-25T07:35:33.763Z,99.90
2019-05-25T07:38:03.633Z,99.90
2019-05-25T07:40:32.955Z,99.90
2019-05-25T07:43:02.860Z,99.80
2019-05-25T07:45:32.792Z,99.30
2019-05-25T07:48:02.063Z,98.50
2019-05-25T07:50:31.449Z,98.80
2019-05-25T07:53:01.763Z,99.30
2019-05-25T07:55:31.082Z,98.90
2019-05-25T07:58:15.566Z,99.60
2019-05-25T08:00:32.715Z,99.90
2019-05-25T08:03:02.048Z,99.90
2019-05-25T08:05:31.465Z,99.90
2019-05-25T08:08:01.050Z,99.90
2019-05-25T08:10:30.332Z,99.90
2019-05-25T08:12:59.738Z,99.90
2019-05-25T08:15:29.038Z,99.90
2019-05-25T08:17:58.664Z,99.90
2019-05-25T08:20:27.970Z,99.90
2019-05-25T08:22:57.772Z,99.90
2019-05-25T08:25:27.078Z,99.90
2019-05-25T08:27:56.326Z,99.90
2019-05-25T08:30:25.618Z,99.90
2019-05-25T08:32:55.352Z,99.90
2019-05-25T08:35:24.865Z,99.90
2019-05-25T08:37:54.138Z,99.90
2019-05-25T08:40:23.466Z,99.90
2019-05-25T08:42:52.714Z,99.90
2019-05-25T08:45:25.707Z,99.90
2019-05-25T08:47:56.799Z,99.90
2019-05-25T08:50:37.180Z,99.90
2019-05-25T08:52:55.010Z,99.90
2019-05-25T08:55:24.271Z,99.90
2019-05-25T08:57:53.564Z,99.90
2019-05-25T09:00:23.433Z,99.90
2019-05-25T09:02:52.762Z,99.90
2019-05-25T09:05:22.128Z,99.90
2019-05-25T09:07:51.527Z,99.90
2019-05-25T09:10:20.764Z,99.90
2019-05-25T09:12:50.100Z,99.90
2019-05-25T09:15:19.974Z,99.90
2019-05-25T09:17:49.514Z,99.90
2019-05-25T09:20:18.783Z,99.90
2019-05-25T09:22:48.110Z,99.90
2019-05-25T09:25:20.050Z,99.90
2019-05-25T09:27:49.324Z,99.90
2019-05-25T09:30:18.606Z,99.90
2019-05-25T09:32:47.974Z,99.90
2019-05-25T09:35:17.590Z,99.90
2019-05-25T09:37:47.020Z,99.90
2019-05-25T09:40:16.736Z,99.90
2019-05-25T09:42:46.120Z,99.90
2019-05-25T09:45:15.447Z,99.90
2019-05-25T09:47:44.698Z,99.90
2019-05-25T09:50:14.043Z,99.90
2019-05-25T09:52:43.388Z,99.50
2019-05-25T09:55:12.938Z,99.10
2019-05-25T09:57:42.234Z,98.90
2019-05-25T10:00:12.210Z,99.00
2019-05-25T10:02:41.986Z,99.30
2019-05-25T10:05:12.015Z,99.10
2019-05-25T10:07:41.356Z,98.80
2019-05-25T10:10:11.550Z,99.10
2019-05-25T10:12:40.858Z,99.10
2019-05-25T10:15:10.847Z,98.60
2019-05-25T10:17:40.126Z,98.30
2019-05-25T10:20:10.070Z,98.60
2019-05-25T10:22:39.472Z,97.90
2019-05-25T10:25:09.168Z,97.90
2019-05-25T10:27:38.415Z,97.80
2019-05-25T10:30:09.501Z,97.60
2019-05-25T10:32:38.850Z,97.60
2019-05-25T10:35:08.591Z,97.50
2019-05-25T10:37:37.866Z,97.40
2019-05-25T10:40:08.521Z,97.10
2019-05-25T10:42:37.825Z,97.30
2019-05-25T10:45:08.072Z,97.80
2019-05-25T10:47:38.583Z,98.00
2019-05-25T10:50:08.793Z,98.50
2019-05-25T10:52:38.079Z,98.80
2019-05-25T10:55:07.777Z,99.00
2019-05-25T10:57:37.143Z,99.30
2019-05-25T11:00:08.776Z,99.30
2019-05-25T11:02:38.010Z,98.60
2019-05-25T11:05:08.643Z,98.80
2019-05-25T11:07:37.888Z,98.90
2019-05-25T11:10:07.556Z,98.40
2019-05-25T11:12:36.834Z,98.10
2019-05-25T11:15:06.576Z,97.70
2019-05-25T11:17:35.998Z,97.90
2019-05-25T11:20:05.992Z,97.70
2019-05-25T11:22:35.248Z,96.90
2019-05-25T11:25:05.196Z,96.40
2019-05-25T11:27:34.723Z,96.10
2019-05-25T11:30:08.887Z,96.00
2019-05-25T11:32:35.695Z,96.00
2019-05-25T11:35:05.183Z,96.00
2019-05-25T11:37:34.643Z,95.00
2019-05-25T11:40:04.566Z,95.10
2019-05-25T11:42:33.839Z,94.90
2019-05-25T11:45:03.165Z,94.30
2019-05-25T11:47:33.162Z,94.40
2019-05-25T11:50:02.549Z,94.10
2019-05-25T11:52:31.811Z,94.40
2019-05-25T11:55:02.212Z,95.00
2019-05-25T11:57:31.462Z,95.30
2019-05-25T12:00:00.814Z,95.60
2019-05-25T12:02:30.631Z,95.40
2019-05-25T12:04:59.915Z,95.20
2019-05-25T12:07:30.408Z,95.20
2019-05-25T12:09:59.732Z,95.00
2019-05-25T12:12:28.998Z,95.00
2019-05-25T12:14:58.229Z,95.20
2019-05-25T12:17:27.531Z,95.20
2019-05-25T12:19:56.790Z,95.40
2019-05-25T12:22:26.087Z,95.60
2019-05-25T12:24:55.351Z,96.30
2019-05-25T12:27:24.612Z,96.30
2019-05-25T12:29:53.847Z,96.30
2019-05-25T12:32:23.187Z,96.50
2019-05-25T12:34:52.485Z,97.30
2019-05-25T12:37:22.999Z,96.50
2019-05-25T12:39:52.278Z,96.00
2019-05-25T12:42:21.526Z,95.50
2019-05-25T12:44:50.799Z,95.40
2019-05-25T12:47:20.045Z,94.80
2019-05-25T12:49:50.883Z,95.10
2019-05-25T12:52:20.264Z,95.00
2019-05-25T12:54:49.594Z,94.90
2019-05-25T12:57:19.464Z,95.10
2019-05-25T12:59:48.738Z,95.30
2019-05-25T13:02:18.181Z,95.70
2019-05-25T13:04:47.422Z,96.00
2019-05-25T13:07:16.690Z,96.20
2019-05-25T13:09:45.937Z,95.90
2019-05-25T13:12:15.201Z,96.00
2019-05-25T13:14:44.467Z,95.80
2019-05-25T13:17:13.699Z,95.10
2019-05-25T13:19:43.200Z,95.30
2019-05-25T13:22:12.570Z,95.10
2019-05-25T13:24:41.912Z,95.20
2019-05-25T13:27:11.210Z,95.10
2019-05-25T13:29:40.687Z,95.60
2019-05-25T13:32:09.991Z,95.70
2019-05-25T13:34:39.423Z,95.80
2019-05-25T13:37:08.766Z,96.10
2019-05-25T13:39:38.220Z,96.10
2019-05-25T13:42:07.804Z,95.80
2019-05-25T13:44:37.063Z,95.70
2019-05-25T13:47:06.337Z,95.70
2019-05-25T13:49:35.591Z,95.60
2019-05-25T13:52:04.923Z,95.80
2019-05-25T13:54:34.159Z,95.80
2019-05-25T13:57:03.407Z,95.70
2019-05-25T13:59:32.706Z,96.30
2019-05-25T14:02:02.009Z,94.90
2019-05-25T14:04:31.258Z,95.50
2019-05-25T14:07:00.538Z,95.70
2019-05-25T14:09:29.809Z,96.20
2019-05-25T14:12:01.184Z,96.00
2019-05-25T14:14:30.428Z,96.00
2019-05-25T14:16:59.698Z,95.70
2019-05-25T14:19:29.078Z,96.40
2019-05-25T14:21:58.344Z,95.70
2019-05-25T14:24:27.920Z,95.80
2019-05-25T14:26:57.897Z,95.90
2019-05-25T14:29:27.133Z,95.90
2019-05-25T14:31:56.465Z,95.60
2019-05-25T14:34:25.725Z,95.10
2019-05-25T14:36:56.824Z,94.90
2019-05-25T14:39:26.148Z,94.70
2019-05-25T14:41:55.462Z,95.00
2019-05-25T14:44:24.900Z,95.40
2019-05-25T14:47:05.737Z,95.40
2019-05-25T14:49:31.937Z,94.90
2019-05-25T14:52:01.441Z,95.50
2019-05-25T14:54:30.852Z,95.10
2019-05-25T14:57:00.162Z,95.00
2019-05-25T14:59:31.762Z,95.50
2019-05-25T15:02:03.946Z,95.50
2019-05-25T15:04:33.232Z,95.90
2019-05-25T15:07:04.249Z,95.80
2019-05-25T15:09:33.653Z,95.50
2019-05-25T15:12:05.491Z,95.70
2019-05-25T15:14:38.358Z,95.50
2019-05-25T15:17:08.055Z,95.30
2019-05-25T15:19:43.001Z,95.00
2019-05-25T15:22:14.883Z,95.40
2019-05-25T15:24:44.465Z,95.50
2019-05-25T15:27:13.859Z,95.40
2019-05-25T15:29:43.179Z,94.60
2019-05-25T15:32:20.471Z,94.60
2019-05-25T15:38:34.617Z,95.10
2019-05-25T15:41:06.870Z,95.20
2019-05-25T15:43:36.174Z,95.70
2019-05-25T15:46:36.633Z,95.80
2019-05-25T15:49:07.353Z,95.70
2019-05-25T15:51:36.811Z,96.20
2019-05-25T15:55:19.536Z,95.60
2019-05-25T15:57:52.421Z,96.00
2019-05-25T16:00:25.257Z,95.60
2019-05-25T16:02:55.025Z,96.10
2019-05-25T16:05:24.300Z,96.10
2019-05-25T16:07:53.780Z,95.70
2019-05-25T16:10:25.459Z,95.50
2019-05-25T16:12:55.865Z,95.60
2019-05-25T16:15:28.964Z,95.80
2019-05-25T16:18:01.835Z,96.50
2019-05-25T16:20:34.211Z,96.80
2019-05-25T16:23:05.961Z,96.90
2019-05-25T16:25:35.379Z,96.90
2019-05-25T16:28:04.679Z,97.00
2019-05-25T16:30:34.456Z,96.80
2019-05-25T16:33:13.942Z,97.00
2019-05-25T16:35:35.300Z,96.80
2019-05-25T16:38:05.013Z,96.80
2019-05-25T16:40:34.490Z,96.90
2019-05-25T16:43:04.129Z,96.70
2019-05-25T16:45:41.772Z,96.80
2019-05-25T16:48:11.095Z,96.80
2019-05-25T16:50:40.375Z,96.40
2019-05-25T16:53:09.690Z,96.50
2019-05-25T16:55:38.950Z,96.60
2019-05-25T16:58:08.275Z,96.20
2019-05-25T17:00:37.632Z,96.70
2019-05-25T17:03:06.923Z,96.40
2019-05-25T17:05:36.334Z,96.60
2019-05-25T17:08:05.586Z,96.80
2019-05-25T17:10:35.041Z,96.90
2019-05-25T17:13:04.584Z,97.00
2019-05-25T17:15:34.092Z,97.30
2019-05-25T17:18:04.833Z,97.40
2019-05-25T17:20:34.388Z,97.20
2019-05-25T17:23:03.866Z,97.20
2019-05-25T17:25:33.154Z,96.90
2019-05-25T17:28:02.507Z,97.00
2019-05-25T17:30:47.607Z,97.00
2019-05-25T17:33:16.928Z,96.70
2019-05-25T17:35:46.214Z,96.10
2019-05-25T17:38:15.510Z,96.30
2019-05-25T17:40:44.876Z,96.30
2019-05-25T17:43:14.160Z,96.70
2019-05-25T17:45:43.473Z,96.80
2019-05-25T17:48:12.923Z,97.10
2019-05-25T17:50:55.733Z,97.20
2019-05-25T17:53:25.167Z,97.30
2019-05-25T17:55:54.521Z,97.70
2019-05-25T17:58:23.863Z,97.10
2019-05-25T18:00:53.294Z,96.50
2019-05-25T18:03:24.992Z,97.00
2019-05-25T18:05:54.426Z,97.40
2019-05-25T18:08:23.727Z,97.60
2019-05-25T18:10:54.557Z,97.70
2019-05-25T18:13:24.183Z,97.90
2019-05-25T18:15:53.862Z,98.00
2019-05-25T18:18:23.298Z,98.20
2019-05-25T18:20:53.621Z,98.40
2019-05-25T18:23:23.153Z,98.60
2019-05-25T18:25:52.521Z,98.80
2019-05-25T18:28:21.874Z,99.00
2019-05-25T18:30:51.216Z,99.10
2019-05-25T18:33:20.539Z,99.20
2019-05-25T18:35:49.873Z,99.40
2019-05-25T18:38:19.183Z,99.70
2019-05-25T18:40:48.521Z,99.90
2019-05-25T18:43:17.806Z,99.90
2019-05-25T18:45:47.108Z,99.90
2019-05-25T18:48:16.383Z,99.90
2019-05-25T18:50:45.706Z,99.90
2019-05-25T18:53:15.053Z,99.90
2019-05-25T18:55:44.356Z,99.90
2019-05-25T18:58:13.779Z,99.90
2019-05-25T19:00:43.046Z,99.90
2019-05-25T19:03:14.202Z,99.90
2019-05-25T19:05:43.602Z,99.90
2019-05-25T19:08:13.032Z,99.90
2019-05-25T19:10:42.445Z,99.90
2019-05-25T19:13:11.783Z,99.90
2019-05-25T19:15:41.080Z,99.90
2019-05-25T19:18:10.411Z,99.90
2019-05-25T19:20:39.761Z,99.90
2019-05-25T19:23:09.209Z,99.90
2019-05-25T19:25:38.526Z,99.90
2019-05-25T19:28:07.896Z,99.90
2019-05-25T19:30:37.299Z,99.90
2019-05-25T19:33:06.795Z,99.90
2019-05-25T19:35:36.042Z,99.90
2019-05-25T19:38:05.651Z,99.90
2019-05-25T19:40:35.039Z,99.90
2019-05-25T19:43:04.614Z,99.90
2019-05-25T19:45:33.911Z,99.90
2019-05-25T19:48:03.210Z,99.90
2019-05-25T19:50:32.973Z,99.90
2019-05-25T19:53:02.241Z,99.90
2019-05-25T19:55:32.079Z,99.90
2019-05-25T19:58:01.364Z,99.90
2019-05-25T20:00:32.474Z,99.90
2019-05-25T20:03:01.567Z,99.90
2019-05-25T20:05:32.951Z,99.90
2019-05-25T20:08:02.239Z,99.90
2019-05-25T20:10:31.524Z,99.90
2019-05-25T20:13:00.809Z,99.90
2019-05-25T20:15:31.894Z,99.90
2019-05-25T20:18:01.259Z,99.90
2019-05-25T20:20:30.543Z,99.90
2019-05-25T20:22:59.994Z,99.90
2019-05-25T20:25:29.282Z,99.90
2019-05-25T20:27:58.534Z,99.90
2019-05-25T20:30:29.716Z,99.90
2019-05-25T20:32:59.226Z,99.90
2019-05-25T20:35:33.133Z,99.90
2019-05-25T20:37:59.419Z,99.90
2019-05-25T20:40:28.678Z,99.90
2019-05-25T20:42:58.014Z,99.90
2019-05-25T20:45:27.261Z,99.90
2019-05-25T20:47:56.682Z,99.90
2019-05-25T20:50:25.997Z,99.90
2019-05-25T20:52:55.259Z,99.90
2019-05-25T20:55:24.557Z,99.90
2019-05-25T20:57:53.810Z,99.90
2019-05-25T21:00:24.315Z,99.90
2019-05-25T21:03:05.367Z,99.90
2019-05-25T21:05:26.427Z,99.90
2019-05-25T21:07:57.397Z,99.90
2019-05-25T21:10:26.582Z,99.90
2019-05-25T21:12:55.915Z,99.90
2019-05-25T21:15:25.183Z,99.90
2019-05-25T21:17:54.453Z,99.90
2019-05-25T21:20:23.729Z,99.90
2019-05-25T21:22:52.995Z,99.90
2019-05-25T21:25:22.610Z,99.90
2019-05-25T21:27:52.213Z,99.90
2019-05-25T21:30:21.866Z,99.90
2019-05-25T21:32:51.134Z,99.90
2019-05-25T21:35:20.734Z,99.90
2019-05-25T21:37:50.116Z,99.90
2019-05-25T21:40:19.384Z,99.90
2019-05-25T21:42:48.666Z,99.90
2019-05-25T21:45:18.135Z,99.90
2019-05-25T21:47:47.376Z,99.90
2019-05-25T21:50:16.971Z,99.90
2019-05-25T21:52:46.446Z,99.90
2019-05-25T21:55:15.849Z,99.90
2019-05-25T21:57:45.133Z,99.90
2019-05-25T22:00:21.365Z,99.90
2019-05-25T22:02:50.750Z,99.90
2019-05-25T22:05:20.220Z,99.90
2019-05-25T22:07:49.555Z,99.90
2019-05-25T22:10:19.018Z,99.90
2019-05-25T22:13:21.326Z,99.90
2019-05-25T22:15:39.050Z,99.90
2019-05-25T22:18:08.918Z,99.90
2019-05-25T22:20:38.199Z,99.90
2019-05-25T22:23:07.463Z,99.90
2019-05-25T22:25:36.825Z,99.90
2019-05-25T22:28:06.070Z,99.90
2019-05-25T22:30:35.359Z,99.90
2019-05-25T22:33:04.865Z,99.90
2019-05-25T22:35:34.239Z,99.90
2019-05-25T22:38:03.665Z,99.90
2019-05-25T22:40:32.903Z,99.90
2019-05-25T22:43:02.470Z,99.90
2019-05-25T22:45:31.909Z,99.90
2019-05-25T22:48:01.493Z,99.90
2019-05-25T22:50:32.450Z,99.90
2019-05-25T22:53:01.874Z,99.90
2019-05-25T22:55:31.772Z,99.90
2019-05-25T22:58:01.128Z,99.90
2019-05-25T23:00:32.059Z,99.90
2019-05-25T23:03:01.656Z,99.90
2019-05-25T23:05:31.194Z,99.90
2019-05-25T23:08:00.482Z,99.90
2019-05-25T23:10:29.907Z,99.90
2019-05-25T23:12:59.194Z,99.90
2019-05-25T23:15:28.582Z,99.90
2019-05-25T23:17:57.909Z,99.90
2019-05-25T23:20:28.730Z,99.90
2019-05-25T23:22:58.070Z,99.90
2019-05-25T23:25:27.420Z,99.90
2019-05-25T23:27:57.156Z,99.90
2019-05-25T23:30:27.042Z,99.90
2019-05-25T23:32:56.354Z,99.90
2019-05-25T23:35:25.660Z,99.90
2019-05-25T23:37:54.986Z,99.90
2019-05-25T23:40:24.289Z,99.90
2019-05-25T23:42:53.579Z,99.90
2019-05-25T23:45:23.053Z,99.90
2019-05-25T23:47:52.365Z,99.90
2019-05-25T23:50:21.795Z,99.90
2019-05-25T23:52:51.524Z,99.90
2019-05-25T23:55:21.064Z,99.90
2019-05-25T23:57:50.389Z,99.90
